Saint-Antonin, Canada
Current Conditions -  °F | °C
As of 8:36 AM on Friday 19 Dec 2014 (Local Time) from KFVE Reporting Station
Overcast Overcast  
Wind Chill:   Ceiling: 1500
Heat Index: 20°   Visibility: 10mi
Dew Point: 17°   Wind: 14mph
Humidity: 89%   Direction: 330°NNW
Pressure: 29.8"   Gusts: NA
Location:  47.77°N, 69.48°W
Report Text: KFVE 191336Z AUTO 33012KT 10SM BKN015 OVC050 M07/M08 A2980 RMK AO2 T10671083
Loading
Personal Weather Stations






























Interactive Weather Map New forecast layout! Learn more

10-Day Weather Forecast

Advertisements
Track Severe Weather on mobile